Time;durP1;ratioP1;P1;durP2;ratioP2;P2;SDS_P1;SDS_P2;PMS_P1;PMS_P2;Temp;Humidity;BMP_temperature;BMP_pressure;BME280_temperature;BME280_humidity;BME280_pressure;Samples;Min_cycle;Max_cycle;Signal;HPM_P1;HPM_P2
2022/11/04 08:13:39;;;;;;;4.30;0.80;;;11.90;99.90;;;;;;5039785;23;20285;-75
2022/11/04 08:16:08;;;;;;;2.30;1.20;;;11.80;99.90;;;;;;5033747;28;20205;-76
2022/11/04 08:18:36;;;;;;;4.07;0.80;;;11.80;99.90;;;;;;5033867;28;20271;-76
2022/11/04 08:21:03;;;;;;;3.30;1.40;;;11.80;99.90;;;;;;5033507;28;20606;-76
2022/11/04 08:23:31;;;;;;;4.90;2.27;;;11.80;99.90;;;;;;5033572;28;20209;-75
2022/11/04 08:25:59;;;;;;;3.83;1.47;;;11.80;99.90;;;;;;5033402;28;20232;-76
2022/11/04 08:28:28;;;;;;;2.57;1.57;;;11.70;99.90;;;;;;5033078;28;20659;-76
2022/11/04 08:30:59;;;;;;;4.87;1.30;;;11.80;99.90;;;;;;5033158;28;20211;-75
2022/11/04 08:33:27;;;;;;;4.97;1.60;;;11.90;99.90;;;;;;5033360;28;20201;-73
2022/11/04 08:35:55;;;;;;;2.90;1.13;;;11.90;99.90;;;;;;5025477;28;20209;-69
2022/11/04 08:38:22;;;;;;;3.70;1.37;;;11.90;99.90;;;;;;5031248;28;20200;-77
2022/11/04 08:40:49;;;;;;;2.87;1.27;;;11.80;99.90;;;;;;5032175;28;20584;-75
2022/11/04 08:43:16;;;;;;;2.83;1.70;;;11.70;99.90;;;;;;5032053;28;20200;-76
2022/11/04 08:45:45;;;;;;;2.63;0.97;;;11.80;99.90;;;;;;5032251;28;20215;-77
2022/11/04 08:48:14;;;;;;;2.30;1.00;;;12.00;99.90;;;;;;5032177;28;20209;-77
2022/11/04 08:50:42;;;;;;;2.67;0.80;;;12.00;99.90;;;;;;5032375;28;20334;-75
2022/11/04 08:53:09;;;;;;;5.30;0.80;;;12.00;99.90;;;;;;5032274;28;20583;-76
2022/11/04 08:55:37;;;;;;;4.47;0.77;;;12.00;99.90;;;;;;5032534;28;20244;-76
2022/11/04 08:58:04;;;;;;;2.00;0.93;;;11.90;99.90;;;;;;5032740;28;20677;-77
2022/11/04 09:00:31;;;;;;;2.97;0.87;;;12.00;99.90;;;;;;5032684;28;20239;-76
2022/11/04 09:02:58;;;;;;;6.90;1.43;;;11.90;99.90;;;;;;5032697;28;20411;-77
2022/11/04 09:05:27;;;;;;;3.83;1.17;;;11.50;99.90;;;;;;5031958;28;20212;-76
2022/11/04 09:07:54;;;;;;;2.63;0.90;;;11.60;99.90;;;;;;5032752;28;20209;-76
2022/11/04 09:10:21;;;;;;;6.60;1.27;;;11.60;99.90;;;;;;5032813;28;20229;-76
2022/11/04 09:12:48;;;;;;;3.47;0.80;;;11.70;99.90;;;;;;5032748;28;20219;-76
2022/11/04 09:15:15;;;;;;;3.77;0.90;;;11.80;99.90;;;;;;5032826;28;20212;-76
2022/11/04 09:17:43;;;;;;;4.30;0.80;;;11.80;99.90;;;;;;5032659;28;20693;-76
2022/11/04 09:20:11;;;;;;;3.50;1.30;;;11.90;99.90;;;;;;5032760;28;20267;-76
2022/11/04 09:22:39;;;;;;;4.60;0.80;;;11.90;99.90;;;;;;5032754;28;20587;-76
2022/11/04 09:25:06;;;;;;;5.33;1.20;;;11.90;99.90;;;;;;5032910;28;20303;-75
2022/11/04 09:27:33;;;;;;;4.87;0.80;;;11.80;99.90;;;;;;5032766;28;20201;-75
2022/11/04 09:29:59;;;;;;;2.57;0.90;;;11.80;99.90;;;;;;5032475;28;20247;-74
2022/11/04 09:32:27;;;;;;;3.37;0.93;;;11.80;99.90;;;;;;5032749;28;20204;-75
2022/11/04 09:34:53;;;;;;;2.20;0.77;;;11.90;99.90;;;;;;5032749;28;20555;-76
2022/11/04 09:37:20;;;;;;;4.00;1.00;;;12.10;99.90;;;;;;5032567;28;20299;-76
2022/11/04 09:39:48;;;;;;;2.17;0.97;;;12.20;99.90;;;;;;5032585;28;20235;-76
2022/11/04 09:42:42;;;;;;;3.20;1.03;;;12.20;99.90;;;;;;5032713;28;20205;-77
2022/11/04 09:45:13;;;;;;;3.07;1.10;;;12.20;99.90;;;;;;5032212;28;20201;-76
2022/11/04 09:47:42;;;;;;;1.13;0.80;;;12.30;99.90;;;;;;5032972;28;20575;-76
2022/11/04 09:50:16;;;;;;;1.60;1.13;;;12.30;99.90;;;;;;5036373;28;20311;-76
2022/11/04 09:52:47;;;;;;;1.90;0.90;;;12.40;99.90;;;;;;5036290;28;20223;-75
2022/11/04 09:55:20;;;;;;;2.00;1.20;;;12.50;99.90;;;;;;5036295;28;20748;-75
2022/11/04 09:57:52;;;;;;;3.77;1.30;;;12.60;99.90;;;;;;5036302;28;20208;-74
2022/11/04 10:00:19;;;;;;;3.07;1.17;;;12.90;99.90;;;;;;5036024;28;20713;-75
2022/11/04 10:03:04;;;;;;;3.67;0.90;;;13.00;99.90;;;;;;5036386;28;20566;-75
2022/11/04 10:05:46;;;;;;;2.23;1.77;;;13.30;99.90;;;;;;5036218;28;20227;-77
2022/11/04 10:08:47;;;;;;;2.57;1.57;;;13.30;99.90;;;;;;5036015;28;20231;-75
2022/11/04 10:11:20;;;;;;;4.60;0.83;;;13.30;99.90;;;;;;5016088;28;20263;-76
2022/11/04 10:14:07;;;;;;;2.50;0.83;;;13.40;99.90;;;;;;5036060;28;20606;-75
2022/11/04 10:16:46;;;;;;;6.37;1.20;;;13.40;99.90;;;;;;5035971;28;20615;-76
2022/11/04 10:19:32;;;;;;;3.90;0.80;;;13.30;99.90;;;;;;5035751;28;20231;-75
2022/11/04 10:22:04;;;;;;;1.20;0.67;;;13.30;99.90;;;;;;5035885;28;20208;-75
2022/11/04 10:24:41;;;;;;;4.50;1.20;;;13.50;99.90;;;;;;5035662;28;20697;-75
2022/11/04 10:27:16;;;;;;;3.83;1.30;;;13.60;99.90;;;;;;5035406;28;20208;-75
2022/11/04 10:29:44;;;;;;;2.20;1.00;;;13.70;99.90;;;;;;5035860;28;20274;-77
2022/11/04 10:32:19;;;;;;;2.37;1.20;;;13.80;99.90;;;;;;5035902;28;20205;-76
2022/11/04 10:34:50;;;;;;;3.40;1.83;;;14.00;99.90;;;;;;5035320;28;20214;-75
2022/11/04 10:37:17;;;;;;;7.20;1.00;;;14.20;99.90;;;;;;5035207;28;20201;-75
2022/11/04 10:39:46;;;;;;;3.63;1.30;;;14.40;99.90;;;;;;5035400;28;20229;-77
2022/11/04 10:42:19;;;;;;;2.93;1.00;;;14.30;99.90;;;;;;5035830;28;20283;-76
2022/11/04 10:44:47;;;;;;;5.63;1.30;;;14.30;99.90;;;;;;5035416;28;20299;-77
2022/11/04 10:47:25;;;;;;;3.00;1.20;;;13.90;99.90;;;;;;5035653;28;20211;-76
2022/11/04 10:50:14;;;;;;;4.27;1.10;;;13.80;99.90;;;;;;5035134;28;20224;-77
2022/11/04 10:52:41;;;;;;;2.30;1.17;;;13.80;99.90;;;;;;5035318;28;20213;-75
2022/11/04 10:55:24;;;;;;;2.83;1.33;;;13.80;99.90;;;;;;5035406;28;20205;-75
2022/11/04 10:57:55;;;;;;;3.23;1.37;;;13.80;99.90;;;;;;5035322;28;20208;-77
2022/11/04 11:00:36;;;;;;;4.63;1.17;;;13.60;99.90;;;;;;5034755;28;20275;-75
2022/11/04 11:03:03;;;;;;;3.83;1.40;;;13.50;99.90;;;;;;5035121;28;20205;-77
2022/11/04 11:05:30;;;;;;;3.33;1.30;;;13.60;99.90;;;;;;5035295;28;20201;-76
2022/11/04 11:07:58;;;;;;;4.70;1.23;;;13.70;99.90;;;;;;5035212;28;20215;-76
2022/11/04 11:10:27;;;;;;;2.40;1.37;;;13.70;99.90;;;;;;5034884;28;20229;-76
2022/11/04 11:13:00;;;;;;;2.93;1.50;;;13.70;99.90;;;;;;5034616;28;20659;-76
2022/11/04 11:15:31;;;;;;;2.17;1.30;;;13.70;99.90;;;;;;5034970;28;20205;-77
2022/11/04 11:18:14;;;;;;;3.63;2.10;;;13.80;99.90;;;;;;5034882;28;20209;-77
2022/11/04 11:20:42;;;;;;;4.60;2.10;;;13.80;99.90;;;;;;5034713;28;20770;-76
2022/11/04 11:23:35;;;;;;;5.50;2.20;;;13.80;99.90;;;;;;5034866;28;20564;-76
2022/11/04 11:26:02;;;;;;;5.87;2.20;;;13.80;99.90;;;;;;5034777;28;20205;-77
2022/11/04 11:28:36;;;;;;;3.93;2.37;;;13.90;99.90;;;;;;5034216;28;20296;-76
2022/11/04 11:31:07;;;;;;;3.77;2.50;;;13.90;99.90;;;;;;5034665;28;20205;-76
2022/11/04 11:33:36;;;;;;;5.77;2.30;;;13.90;99.90;;;;;;5034260;28;20211;-75
2022/11/04 11:36:10;;;;;;;4.93;2.50;;;13.80;99.90;;;;;;5034340;28;20291;-77
2022/11/04 11:38:39;;;;;;;4.03;2.40;;;13.70;99.90;;;;;;5034338;28;20209;-75
2022/11/04 11:41:08;;;;;;;6.53;2.97;;;13.80;99.90;;;;;;5034249;28;20699;-75
2022/11/04 11:43:40;;;;;;;9.57;2.67;;;13.90;99.90;;;;;;5034065;28;20930;-76
2022/11/04 11:46:07;;;;;;;4.83;2.60;;;13.90;99.90;;;;;;5034014;28;20721;-75
2022/11/04 11:48:41;;;;;;;5.40;3.13;;;13.80;99.90;;;;;;5033949;28;20201;-75
2022/11/04 11:51:11;;;;;;;5.43;2.80;;;13.90;99.90;;;;;;5034219;28;20262;-74
2022/11/04 11:53:44;;;;;;;4.63;3.17;;;14.10;99.90;;;;;;5034195;28;20209;-75
2022/11/04 11:56:21;;;;;;;4.90;2.57;;;14.40;99.90;;;;;;5033966;28;20201;-75
2022/11/04 12:02:51;;;;;;;5.30;2.40;;;14.40;99.90;;;;;;5034021;28;20239;-74
2022/11/04 12:05:19;;;;;;;5.40;2.13;;;14.60;99.90;;;;;;5033452;28;20205;-76
2022/11/04 12:07:55;;;;;;;5.10;2.30;;;14.70;99.90;;;;;;5033810;28;20233;-76
2022/11/04 12:10:31;;;;;;;5.50;2.13;;;14.70;99.90;;;;;;5033522;28;20283;-75
2022/11/04 12:13:07;;;;;;;5.83;2.30;;;14.70;99.90;;;;;;5032547;28;20212;-76
2022/11/04 12:15:48;;;;;;;7.53;2.33;;;14.60;99.90;;;;;;5033387;28;20554;-76
2022/11/04 12:18:50;;;;;;;8.50;2.70;;;14.40;99.90;;;;;;5034033;28;20209;-76
2022/11/04 12:21:25;;;;;;;5.53;2.23;;;14.30;99.90;;;;;;5033296;28;20323;-76
2022/11/04 12:23:56;;;;;;;5.63;2.20;;;14.20;99.90;;;;;;5033615;28;20200;-75
2022/11/04 12:26:33;;;;;;;4.77;2.53;;;14.10;99.90;;;;;;5033651;28;20209;-75
2022/11/04 12:29:17;;;;;;;5.10;2.40;;;14.00;99.90;;;;;;5033289;28;20230;-78
2022/11/04 12:31:51;;;;;;;6.70;2.60;;;13.80;99.90;;;;;;5033349;28;20200;-76
2022/11/04 12:34:30;;;;;;;10.03;3.20;;;13.60;99.90;;;;;;5033278;28;20204;-75
2022/11/04 12:37:11;;;;;;;6.30;2.93;;;13.60;99.90;;;;;;5033394;28;20552;-75
2022/11/04 12:39:52;;;;;;;4.80;3.07;;;13.50;99.90;;;;;;5033438;28;20315;-75
2022/11/04 12:42:26;;;;;;;5.80;2.80;;;13.30;99.90;;;;;;5033342;28;20228;-76
2022/11/04 12:45:07;;;;;;;6.57;2.97;;;13.40;99.90;;;;;;5033233;28;20208;-75
2022/11/04 12:47:38;;;;;;;7.37;3.60;;;13.30;99.90;;;;;;5033357;28;20295;-75
2022/11/04 12:50:32;;;;;;;6.73;3.50;;;13.40;99.90;;;;;;5032953;28;20276;-75
2022/11/04 12:53:17;;;;;;;4.37;3.20;;;13.50;99.90;;;;;;5032985;28;20217;-75
2022/11/04 12:55:53;;;;;;;5.97;3.20;;;13.40;99.90;;;;;;5033267;28;20256;-75
2022/11/04 12:58:36;;;;;;;9.17;4.23;;;13.40;99.90;;;;;;5033120;28;20208;-73
2022/11/04 13:01:06;;;;;;;9.27;4.30;;;13.50;99.90;;;;;;5032946;28;20233;-72
2022/11/04 13:03:39;;;;;;;5.27;3.53;;;13.50;99.90;;;;;;5032949;28;20211;-74
2022/11/04 13:06:12;;;;;;;8.27;3.80;;;13.60;99.90;;;;;;5032899;28;20205;-76
2022/11/04 13:08:43;;;;;;;5.37;3.30;;;13.80;99.90;;;;;;5032743;28;20204;-73
2022/11/04 13:11:22;;;;;;;6.00;3.77;;;13.80;99.90;;;;;;5032720;28;20208;-78
2022/11/04 13:13:56;;;;;;;5.47;2.97;;;14.00;99.90;;;;;;5032555;28;20219;-73
2022/11/04 13:16:23;;;;;;;7.87;3.53;;;13.90;99.90;;;;;;5032887;28;20215;-77
2022/11/04 13:18:51;;;;;;;8.60;3.20;;;13.90;99.90;;;;;;5032966;28;20231;-72
2022/11/04 13:21:23;;;;;;;5.17;2.77;;;13.90;99.90;;;;;;5032769;28;20240;-73
2022/11/04 13:23:56;;;;;;;5.23;2.60;;;13.90;99.90;;;;;;5035559;28;20226;-77
2022/11/04 13:26:22;;;;;;;8.30;2.60;;;13.80;99.90;;;;;;5031976;28;20295;-76
2022/11/04 13:28:58;;;;;;;4.73;2.10;;;13.70;99.90;;;;;;5034984;28;20221;-73
2022/11/04 13:31:32;;;;;;;3.77;2.00;;;13.60;99.90;;;;;;5035771;28;20204;-74
2022/11/04 13:34:06;;;;;;;10.63;3.73;;;13.60;99.90;;;;;;5035302;28;20667;-75
2022/11/04 13:36:42;;;;;;;6.57;2.60;;;13.70;99.90;;;;;;5035320;28;20220;-72
2022/11/04 13:39:16;;;;;;;6.67;2.70;;;13.80;99.90;;;;;;5035514;28;20231;-74
2022/11/04 13:42:28;;;;;;;8.97;3.10;;;13.80;99.90;;;;;;5035361;28;20318;-72
2022/11/04 13:44:57;;;;;;;6.17;2.80;;;13.70;99.90;;;;;;5009104;28;20291;-80
2022/11/04 13:47:32;;;;;;;5.87;2.77;;;13.70;99.90;;;;;;5036099;28;20227;-82
2022/11/04 13:49:59;;;;;;;5.77;2.80;;;13.80;99.90;;;;;;5036485;28;20238;-70
2022/11/04 13:52:30;;;;;;;7.03;3.17;;;13.80;99.90;;;;;;5036479;28;20212;-74
2022/11/04 13:54:59;;;;;;;7.60;3.17;;;13.80;99.90;;;;;;5036989;28;20601;-68
2022/11/04 13:57:28;;;;;;;4.90;3.10;;;13.90;99.90;;;;;;5036314;28;20305;-67
2022/11/04 14:00:19;;;;;;;6.67;3.10;;;13.80;99.90;;;;;;5036483;28;20229;-68
2022/11/04 14:02:47;;;;;;;6.30;3.13;;;13.80;99.90;;;;;;5036295;28;20598;-68
2022/11/04 14:05:56;;;;;;;7.10;3.50;;;13.70;99.90;;;;;;5036184;28;20660;-70
2022/11/04 14:08:24;;;;;;;6.43;2.87;;;13.60;99.90;;;;;;5036406;28;20615;-68
2022/11/04 14:11:10;;;;;;;4.60;2.83;;;13.70;99.90;;;;;;5036375;28;20266;-69
2022/11/04 14:14:02;;;;;;;6.50;3.17;;;13.80;99.90;;;;;;5036856;28;20216;-69
2022/11/04 14:16:47;;;;;;;4.33;2.80;;;14.00;99.90;;;;;;5036647;28;20216;-67
2022/11/04 14:19:46;;;;;;;4.27;1.93;;;14.00;99.90;;;;;;5036711;28;20240;-70
2022/11/04 14:22:15;;;;;;;3.20;2.00;;;13.90;99.90;;;;;;5037093;28;20255;-70
2022/11/04 14:24:44;;;;;;;2.20;1.73;;;13.90;99.90;;;;;;5036993;28;20207;-71
2022/11/04 14:27:25;;;;;;;5.30;2.00;;;14.00;99.90;;;;;;5036017;28;20274;-67
2022/11/04 14:29:53;;;;;;;6.00;1.97;;;14.00;99.90;;;;;;5035790;28;20225;-68
2022/11/04 14:32:26;;;;;;;3.37;2.00;;;13.80;99.90;;;;;;5035838;28;20227;-65
2022/11/04 14:34:59;;;;;;;3.40;1.87;;;13.70;99.90;;;;;;5034524;28;20212;-68
2022/11/04 14:37:30;;;;;;;2.60;1.40;;;13.80;99.90;;;;;;5035481;28;20301;-69
2022/11/04 14:40:01;;;;;;;2.23;1.40;;;13.90;99.90;;;;;;5035588;28;20221;-72
2022/11/04 14:42:48;;;;;;;6.53;1.93;;;13.90;99.90;;;;;;5035285;28;20232;-66
2022/11/04 14:45:19;;;;;;;3.63;1.40;;;13.90;99.90;;;;;;5035292;28;20204;-72
2022/11/04 14:47:50;;;;;;;2.97;1.20;;;14.00;99.90;;;;;;5030873;28;20263;-64
2022/11/04 14:50:20;;;;;;;1.60;1.03;;;13.70;99.90;;;;;;5033486;28;20231;-66
2022/11/04 14:52:51;;;;;;;1.80;0.80;;;13.70;99.90;;;;;;5034308;28;20209;-72
2022/11/04 14:55:21;;;;;;;5.30;1.10;;;13.60;99.90;;;;;;5035134;28;20215;-74
2022/11/04 14:57:50;;;;;;;1.27;0.67;;;13.50;99.90;;;;;;5034921;28;20215;-71
2022/11/04 15:00:33;;;;;;;0.97;0.50;;;13.40;99.90;;;;;;5035487;28;20227;-73
2022/11/04 15:03:13;;;;;;;0.77;0.50;;;13.20;99.90;;;;;;5035057;28;20233;-70
2022/11/04 15:05:46;;;;;;;1.03;0.50;;;13.20;99.90;;;;;;5035350;28;20204;-70
2022/11/04 15:08:27;;;;;;;1.07;0.43;;;13.10;99.90;;;;;;5034856;28;20207;-69
2022/11/04 15:11:01;;;;;;;2.33;0.40;;;12.90;99.90;;;;;;5034983;28;20208;-71
2022/11/04 15:13:28;;;;;;;0.70;0.40;;;12.90;99.90;;;;;;5034867;28;20450;-70
2022/11/04 15:15:57;;;;;;;0.77;0.30;;;12.80;99.90;;;;;;5034839;28;20205;-71
2022/11/04 15:18:28;;;;;;;2.57;0.40;;;12.60;99.90;;;;;;5034670;28;20204;-71
2022/11/04 15:20:57;;;;;;;0.83;0.53;;;12.60;99.90;;;;;;5034564;28;20587;-72
2022/11/04 15:23:28;;;;;;;1.43;0.40;;;12.40;99.90;;;;;;5034891;28;20204;-71
2022/11/04 15:25:56;;;;;;;1.17;0.60;;;12.50;99.90;;;;;;5034871;28;20204;-71
2022/11/04 15:28:28;;;;;;;1.30;0.50;;;12.50;99.90;;;;;;5034264;28;20212;-71
2022/11/04 15:31:00;;;;;;;2.07;0.37;;;12.50;99.90;;;;;;5034698;28;20213;-70
2022/11/04 15:33:28;;;;;;;3.10;0.33;;;12.40;99.90;;;;;;5034666;28;20209;-71
2022/11/04 15:35:57;;;;;;;1.97;0.40;;;12.30;99.90;;;;;;5034596;28;20211;-71
2022/11/04 15:38:27;;;;;;;0.73;0.40;;;12.30;99.90;;;;;;5034504;28;20217;-72
2022/11/04 15:40:56;;;;;;;1.27;0.43;;;12.30;99.90;;;;;;5034581;28;20267;-71
2022/11/04 15:43:23;;;;;;;0.67;0.43;;;12.20;99.90;;;;;;5034416;28;20221;-71
2022/11/04 15:45:51;;;;;;;1.37;0.50;;;12.10;99.90;;;;;;5034112;28;20729;-71
2022/11/04 15:48:32;;;;;;;2.10;0.40;;;12.10;99.90;;;;;;5034539;28;20201;-71
2022/11/04 15:51:18;;;;;;;0.57;0.37;;;12.10;99.90;;;;;;5034343;28;20217;-71
2022/11/04 15:53:52;;;;;;;1.93;0.47;;;12.00;99.90;;;;;;5034223;28;20207;-71
2022/11/04 15:56:22;;;;;;;1.00;0.40;;;12.10;99.90;;;;;;5034011;28;20258;-71
2022/11/04 15:58:52;;;;;;;0.50;0.30;;;12.10;99.90;;;;;;5033992;28;20225;-71
2022/11/04 16:01:19;;;;;;;0.93;0.50;;;11.90;99.90;;;;;;5033940;28;20215;-71
2022/11/04 16:03:54;;;;;;;2.03;0.50;;;11.80;99.90;;;;;;5033854;28;20204;-72
2022/11/04 16:06:34;;;;;;;1.97;0.50;;;11.80;99.90;;;;;;5033934;28;20252;-71
2022/11/04 16:09:04;;;;;;;0.70;0.50;;;11.70;99.90;;;;;;5033665;28;20274;-70
2022/11/04 16:11:31;;;;;;;0.93;0.50;;;11.80;99.90;;;;;;5033600;28;20220;-70
2022/11/04 16:14:23;;;;;;;1.33;0.60;;;11.70;99.90;;;;;;5028418;28;20223;-70
2022/11/04 16:16:52;;;;;;;2.27;0.80;;;11.70;99.90;;;;;;5033743;28;20213;-69
2022/11/04 16:19:21;;;;;;;1.50;0.60;;;11.80;99.90;;;;;;5033197;28;20224;-70
2022/11/04 16:21:57;;;;;;;2.63;0.73;;;11.80;99.90;;;;;;5033526;28;20248;-71
2022/11/04 16:24:27;;;;;;;1.43;0.50;;;11.70;99.90;;;;;;5032334;28;20208;-67
2022/11/04 16:26:56;;;;;;;1.00;0.60;;;11.50;99.90;;;;;;5033427;28;20205;-72
2022/11/04 16:29:27;;;;;;;0.97;0.70;;;11.50;99.90;;;;;;5032923;28;20235;-69
2022/11/04 16:32:17;;;;;;;1.10;0.50;;;11.50;99.90;;;;;;5033334;28;20201;-68
2022/11/04 16:34:44;;;;;;;2.87;0.77;;;11.50;99.90;;;;;;5013678;28;20210;-74
2022/11/04 16:37:11;;;;;;;2.40;0.70;;;11.60;99.90;;;;;;5013715;28;20209;-67
2022/11/04 16:39:38;;;;;;;1.67;0.70;;;11.50;99.90;;;;;;5013261;28;20221;-72
2022/11/04 16:42:06;;;;;;;1.60;0.60;;;11.40;99.90;;;;;;5013246;28;20237;-71
2022/11/04 16:46:05;;;;;;;4.17;0.80;;;11.40;99.90;;;;;;5090431;27;20602;-67
2022/11/04 16:48:31;;;;;;;0.93;0.50;;;11.30;99.90;;;;;;5090183;28;20211;-75
2022/11/04 16:50:58;;;;;;;1.00;0.67;;;11.40;99.90;;;;;;5090159;28;20234;-68
2022/11/04 16:53:25;;;;;;;3.53;0.67;;;11.40;99.90;;;;;;5088834;28;20669;-71
2022/11/04 16:55:54;;;;;;;2.00;0.60;;;11.40;99.90;;;;;;5088508;28;20210;-70
2022/11/04 16:58:21;;;;;;;2.27;0.60;;;11.40;99.90;;;;;;5090032;28;20202;-68
2022/11/04 17:00:48;;;;;;;2.00;0.50;;;11.40;99.90;;;;;;5089987;28;20256;-68
2022/11/04 17:03:20;;;;;;;2.30;0.73;;;11.50;99.90;;;;;;5090494;28;20206;-71
2022/11/04 17:05:47;;;;;;;2.13;0.80;;;11.50;99.90;;;;;;5089987;28;20280;-68
2022/11/04 17:08:14;;;;;;;1.17;0.70;;;11.50;99.90;;;;;;5090065;28;20198;-72
2022/11/04 17:10:41;;;;;;;1.43;0.77;;;11.50;99.90;;;;;;5090122;28;20245;-68
2022/11/04 17:13:08;;;;;;;2.10;0.70;;;11.30;99.90;;;;;;5090006;28;20231;-66
2022/11/04 17:15:35;;;;;;;1.40;0.80;;;11.20;99.90;;;;;;5090064;28;20202;-67
2022/11/04 17:18:01;;;;;;;1.30;0.77;;;11.20;99.90;;;;;;5090163;28;20202;-67
2022/11/04 17:20:30;;;;;;;1.73;0.73;;;11.30;99.90;;;;;;5090092;28;20313;-66
2022/11/04 17:22:58;;;;;;;1.40;0.77;;;11.30;99.90;;;;;;5089975;28;20676;-69
2022/11/04 17:25:27;;;;;;;1.40;0.80;;;11.20;99.90;;;;;;5089803;28;20230;-65
2022/11/04 17:27:54;;;;;;;3.67;1.30;;;11.20;99.90;;;;;;5089493;28;20209;-66
2022/11/04 17:30:22;;;;;;;3.50;1.30;;;11.30;99.90;;;;;;5089773;28;20229;-68
2022/11/04 17:32:49;;;;;;;1.83;1.33;;;11.10;99.90;;;;;;5089759;28;20210;-70
2022/11/04 17:35:17;;;;;;;2.00;1.37;;;11.10;99.90;;;;;;5089543;28;20207;-68
2022/11/04 17:37:46;;;;;;;3.53;1.30;;;11.10;99.90;;;;;;5089388;28;20202;-67
2022/11/04 17:40:15;;;;;;;3.97;1.63;;;11.10;99.90;;;;;;5089439;28;20562;-68
2022/11/04 17:45:27;;;;;;;2.37;1.53;;;11.10;99.90;;;;;;5089594;28;20242;-66
2022/11/04 17:47:54;;;;;;;4.47;1.33;;;11.00;99.90;;;;;;5089613;28;20560;-66
2022/11/04 17:50:21;;;;;;;1.90;1.10;;;10.90;99.90;;;;;;5089446;28;20245;-65
2022/11/04 17:52:49;;;;;;;1.67;1.00;;;10.90;99.90;;;;;;5089218;28;20206;-66
2022/11/04 17:55:15;;;;;;;3.70;1.20;;;10.90;99.90;;;;;;5088171;28;20203;-65
2022/11/04 17:57:42;;;;;;;2.20;1.00;;;10.90;99.90;;;;;;5075445;28;20209;-65
2022/11/04 18:00:13;;;;;;;1.73;0.90;;;10.80;99.90;;;;;;5075566;28;20585;-67
2022/11/04 18:02:40;;;;;;;1.33;1.07;;;10.80;99.90;;;;;;5075704;28;20700;-66
2022/11/04 18:05:08;;;;;;;2.13;1.10;;;10.70;99.90;;;;;;5075564;28;20234;-65
2022/11/04 18:07:35;;;;;;;4.07;1.30;;;10.60;99.90;;;;;;5075288;28;20221;-68
2022/11/04 18:10:03;;;;;;;3.33;1.63;;;10.60;99.90;;;;;;5075675;28;20227;-67
2022/11/04 18:12:40;;;;;;;5.37;1.70;;;10.60;99.90;;;;;;5075566;28;20302;-65
2022/11/04 18:15:09;;;;;;;3.63;1.70;;;10.50;99.90;;;;;;5075489;28;20199;-65
2022/11/04 18:17:37;;;;;;;8.10;2.17;;;10.50;99.90;;;;;;5075339;28;20601;-70
2022/11/04 18:20:05;;;;;;;3.90;2.10;;;10.40;99.90;;;;;;5075424;28;20229;-67
2022/11/04 18:22:31;;;;;;;6.47;2.60;;;10.40;99.90;;;;;;5075623;28;20205;-65
2022/11/04 18:24:58;;;;;;;4.37;1.93;;;10.30;99.90;;;;;;5075135;28;20241;-67
2022/11/04 18:27:26;;;;;;;4.23;2.37;;;10.30;99.90;;;;;;5075182;28;20674;-69
2022/11/04 18:29:53;;;;;;;3.87;2.50;;;10.30;99.90;;;;;;5074816;28;20230;-68
2022/11/04 18:32:20;;;;;;;6.47;2.30;;;10.20;99.90;;;;;;5074980;28;20214;-66
2022/11/04 18:34:49;;;;;;;5.03;2.37;;;10.10;99.90;;;;;;5075036;28;20222;-67
2022/11/04 18:37:16;;;;;;;4.60;2.27;;;10.10;99.90;;;;;;5075114;28;20553;-71
2022/11/04 18:39:42;;;;;;;7.03;3.20;;;10.10;99.90;;;;;;5074954;28;20281;-66
2022/11/04 18:42:09;;;;;;;9.07;3.33;;;10.00;99.90;;;;;;5074815;28;20199;-67
2022/11/04 18:44:38;;;;;;;5.23;3.07;;;10.00;99.90;;;;;;5074445;28;20223;-68
2022/11/04 18:47:04;;;;;;;4.40;2.63;;;9.90;99.90;;;;;;5074818;28;20213;-67
2022/11/04 18:49:31;;;;;;;6.13;3.10;;;9.80;99.90;;;;;;5075028;28;20224;-68
2022/11/04 18:51:59;;;;;;;5.03;2.93;;;9.70;99.90;;;;;;5074911;28;20203;-66
2022/11/04 18:54:25;;;;;;;4.73;3.07;;;9.70;99.90;;;;;;5075175;28;20207;-66
2022/11/04 18:56:52;;;;;;;7.13;3.33;;;9.70;99.90;;;;;;5074650;28;20253;-66
2022/11/04 18:59:19;;;;;;;5.97;2.90;;;9.70;99.90;;;;;;5074370;28;20223;-65
2022/11/04 19:01:49;;;;;;;5.43;2.93;;;9.70;99.90;;;;;;5074352;28;20208;-67
2022/11/04 19:04:16;;;;;;;4.93;2.60;;;9.60;99.90;;;;;;5074319;28;20744;-65
2022/11/04 19:06:44;;;;;;;8.00;3.30;;;9.50;99.90;;;;;;5074498;28;20203;-65
2022/11/04 19:09:13;;;;;;;6.60;3.20;;;9.40;99.90;;;;;;5073607;28;20227;-65
2022/11/04 19:11:41;;;;;;;6.23;3.30;;;9.40;99.90;;;;;;5074213;28;20688;-66
2022/11/04 19:14:11;;;;;;;6.60;3.43;;;9.30;99.90;;;;;;5074099;28;20235;-66
2022/11/04 19:16:38;;;;;;;9.73;3.17;;;9.20;99.90;;;;;;5074496;28;20207;-64
2022/11/04 19:19:10;;;;;;;5.67;3.50;;;9.30;99.90;;;;;;5074212;28;20717;-67
2022/11/04 19:21:38;;;;;;;8.80;4.27;;;9.20;99.90;;;;;;5074313;28;20210;-65
2022/11/04 19:24:07;;;;;;;8.70;4.33;;;9.20;99.90;;;;;;5073818;28;20661;-65
2022/11/04 19:26:35;;;;;;;10.27;4.50;;;9.10;99.90;;;;;;5073963;28;20235;-65
2022/11/04 19:29:04;;;;;;;6.23;3.20;;;9.10;99.90;;;;;;5073686;28;20233;-65
2022/11/04 19:31:32;;;;;;;6.30;3.17;;;9.00;99.90;;;;;;5074268;28;20203;-65
2022/11/04 19:34:01;;;;;;;5.63;2.80;;;8.90;99.90;;;;;;5073960;28;20207;-66
2022/11/04 19:36:31;;;;;;;8.03;3.30;;;9.00;99.90;;;;;;5073802;28;20294;-65
2022/11/04 19:38:58;;;;;;;8.77;3.43;;;8.90;99.90;;;;;;5073672;28;20234;-68
2022/11/04 19:44:11;;;;;;;12.40;4.50;;;8.90;99.90;;;;;;5073318;28;20209;-68
2022/11/04 19:46:38;;;;;;;13.07;4.57;;;8.90;99.90;;;;;;5073590;28;20235;-65
2022/11/04 19:49:07;;;;;;;9.23;4.53;;;8.90;99.90;;;;;;5073456;28;20246;-65
2022/11/04 19:51:36;;;;;;;7.57;4.10;;;8.90;99.90;;;;;;5073221;28;20204;-64
2022/11/04 19:54:04;;;;;;;9.83;4.40;;;8.80;99.90;;;;;;5073499;28;20204;-65
2022/11/04 19:56:32;;;;;;;8.43;3.97;;;8.90;99.90;;;;;;5073676;28;20670;-65
2022/11/04 19:58:59;;;;;;;8.53;4.03;;;8.80;99.90;;;;;;5073616;28;20228;-67
2022/11/04 20:01:26;;;;;;;10.73;4.30;;;8.70;99.90;;;;;;5073385;28;20214;-65
2022/11/04 20:03:53;;;;;;;9.27;4.17;;;8.70;99.90;;;;;;5073096;28;20210;-65
2022/11/04 20:06:20;;;;;;;8.43;3.70;;;8.70;99.90;;;;;;5073049;28;20233;-65
2022/11/04 20:08:48;;;;;;;8.30;4.03;;;8.70;99.90;;;;;;5073336;28;20310;-65
2022/11/04 20:11:17;;;;;;;8.50;4.13;;;8.70;99.90;;;;;;5073248;28;20211;-65
2022/11/04 20:13:43;;;;;;;10.40;4.57;;;8.70;99.90;;;;;;5072732;28;20210;-65
2022/11/04 20:16:16;;;;;;;11.33;4.57;;;8.70;99.90;;;;;;5073709;28;20207;-65
2022/11/04 20:18:44;;;;;;;8.67;3.67;;;8.70;99.90;;;;;;5072818;28;20227;-66
2022/11/04 20:21:11;;;;;;;8.20;4.30;;;8.70;99.90;;;;;;5073286;28;20207;-65
2022/11/04 20:23:38;;;;;;;6.20;3.73;;;8.70;99.90;;;;;;5073274;28;20538;-68
2022/11/04 20:26:12;;;;;;;10.07;4.23;;;8.70;99.90;;;;;;5072942;28;20360;-70
2022/11/04 20:28:40;;;;;;;11.67;4.67;;;8.70;99.90;;;;;;5072749;28;20240;-65
2022/11/04 20:31:10;;;;;;;12.10;4.20;;;8.80;99.90;;;;;;5073061;28;20207;-65
2022/11/04 20:33:37;;;;;;;6.10;3.43;;;8.80;99.90;;;;;;5073052;28;20199;-65
2022/11/04 20:36:06;;;;;;;9.57;4.53;;;8.80;99.90;;;;;;5073095;28;20252;-66
2022/11/04 20:38:33;;;;;;;10.73;3.80;;;8.80;99.90;;;;;;5072783;28;20257;-64
2022/11/04 20:41:03;;;;;;;8.73;4.10;;;8.80;99.90;;;;;;5072787;28;20207;-64
2022/11/04 20:43:33;;;;;;;7.97;3.90;;;8.80;99.90;;;;;;5072413;28;20562;-65
2022/11/04 20:46:03;;;;;;;11.20;3.87;;;9.00;99.90;;;;;;5072526;28;20235;-66
2022/11/04 20:48:30;;;;;;;12.27;4.13;;;9.00;99.90;;;;;;5073032;28;20199;-65
2022/11/04 20:50:57;;;;;;;8.13;3.77;;;9.00;99.90;;;;;;5072849;28;20264;-66
2022/11/04 20:53:24;;;;;;;7.13;3.70;;;9.10;99.90;;;;;;5072754;28;20209;-66
2022/11/04 20:55:51;;;;;;;5.80;3.20;;;9.00;99.90;;;;;;5072638;28;20214;-67
2022/11/04 20:58:17;;;;;;;11.50;3.80;;;9.00;99.90;;;;;;5072452;28;20199;-65
2022/11/04 21:00:45;;;;;;;10.87;3.50;;;9.00;99.90;;;;;;5072495;28;20279;-70
2022/11/04 21:03:12;;;;;;;6.13;3.83;;;9.10;99.90;;;;;;5072652;28;20565;-67
2022/11/04 21:05:40;;;;;;;6.80;3.50;;;9.20;99.90;;;;;;5072460;28;20559;-66
2022/11/04 21:08:07;;;;;;;7.47;4.20;;;9.20;99.90;;;;;;5072705;28;21085;-65
2022/11/04 21:10:35;;;;;;;5.10;3.37;;;9.30;99.90;;;;;;5072517;28;20227;-66
2022/11/04 21:13:03;;;;;;;10.10;4.47;;;9.30;99.90;;;;;;5072521;28;20684;-66
2022/11/04 21:15:43;;;;;;;7.80;4.53;;;9.40;99.90;;;;;;5072897;28;20195;-66
2022/11/04 21:18:12;;;;;;;7.43;3.60;;;9.40;99.90;;;;;;5072866;28;20203;-65
2022/11/04 21:20:41;;;;;;;9.60;3.80;;;9.50;99.90;;;;;;5072513;28;20255;-67
2022/11/04 21:23:08;;;;;;;10.30;3.60;;;9.50;99.90;;;;;;5072255;28;20286;-65
2022/11/04 21:25:39;;;;;;;9.77;4.00;;;9.50;99.90;;;;;;5072190;28;20693;-65
2022/11/04 21:28:06;;;;;;;8.37;3.80;;;9.50;99.90;;;;;;5072342;28;20203;-65
2022/11/04 21:30:34;;;;;;;6.57;3.40;;;9.50;99.90;;;;;;5072343;28;20582;-65
2022/11/04 21:33:01;;;;;;;7.70;3.17;;;9.40;99.90;;;;;;5076295;28;20199;-66